createdAt,value
2018-07-17T00:00:11.029Z,99.90
2018-07-17T00:02:40.407Z,99.90
2018-07-17T00:05:10.339Z,99.90
2018-07-17T00:07:39.493Z,99.90
2018-07-17T00:10:09.129Z,99.90
2018-07-17T00:12:38.365Z,99.90
2018-07-17T00:15:07.545Z,99.90
2018-07-17T00:17:37.133Z,99.90
2018-07-17T00:20:06.335Z,99.90
2018-07-17T00:22:35.488Z,99.90
2018-07-17T00:25:04.659Z,99.90
2018-07-17T00:27:33.823Z,99.90
2018-07-17T00:30:02.976Z,99.90
2018-07-17T00:32:32.133Z,99.90
2018-07-17T00:35:01.281Z,99.90
2018-07-17T00:37:30.431Z,99.90
2018-07-17T00:39:59.589Z,99.90
2018-07-17T00:42:28.770Z,99.90
2018-07-17T00:44:57.909Z,99.90
2018-07-17T00:47:27.062Z,99.90
2018-07-17T00:49:56.215Z,99.90
2018-07-17T00:52:25.376Z,99.90
2018-07-17T00:54:54.517Z,99.90
2018-07-17T00:57:23.687Z,99.90
2018-07-17T00:59:52.846Z,99.90
2018-07-17T01:02:27.259Z,99.90
2018-07-17T01:05:01.662Z,99.90
2018-07-17T01:07:36.060Z,99.90
2018-07-17T01:10:10.652Z,99.90
2018-07-17T01:12:38.951Z,99.90
2018-07-17T01:15:15.521Z,99.90
2018-07-17T01:17:44.754Z,99.90
2018-07-17T01:20:13.924Z,99.90
2018-07-17T01:22:43.135Z,99.90
2018-07-17T01:25:12.315Z,99.90
2018-07-17T01:27:41.628Z,99.90
2018-07-17T01:30:10.792Z,99.90
2018-07-17T01:32:39.968Z,99.90
2018-07-17T01:35:09.186Z,99.90
2018-07-17T01:40:07.309Z,99.90
2018-07-17T01:42:36.546Z,99.90
2018-07-17T01:45:05.712Z,99.90
2018-07-17T01:47:34.931Z,99.90
2018-07-17T01:50:04.089Z,99.90
2018-07-17T01:52:33.263Z,99.90
2018-07-17T01:55:02.459Z,99.90
2018-07-17T01:57:31.651Z,99.90
2018-07-17T02:00:00.832Z,99.90
2018-07-17T02:04:59.045Z,99.90
2018-07-17T02:07:28.161Z,99.90
2018-07-17T02:09:57.396Z,99.90
2018-07-17T02:12:26.565Z,99.90
2018-07-17T02:14:55.727Z,99.90
2018-07-17T02:17:24.917Z,99.90
2018-07-17T02:19:54.093Z,99.90
2018-07-17T02:22:23.307Z,99.90
2018-07-17T02:24:52.484Z,99.90
2018-07-17T02:27:21.713Z,99.90
2018-07-17T02:29:50.899Z,99.90
2018-07-17T02:32:20.091Z,99.90
2018-07-17T02:37:18.225Z,99.90
2018-07-17T02:39:47.397Z,99.90
2018-07-17T02:42:16.590Z,99.90
2018-07-17T02:44:45.772Z,99.90
2018-07-17T02:47:14.967Z,99.90
2018-07-17T02:49:44.146Z,99.90
2018-07-17T02:52:13.343Z,99.90
2018-07-17T02:54:42.534Z,99.90
2018-07-17T02:57:11.716Z,99.90
2018-07-17T02:59:40.893Z,99.90
2018-07-17T03:02:10.120Z,99.90
2018-07-17T03:04:39.306Z,99.90
2018-07-17T03:07:08.551Z,99.90
2018-07-17T03:09:37.652Z,99.90
2018-07-17T03:17:04.881Z,99.90
2018-07-17T03:19:34.068Z,99.90
2018-07-17T03:22:03.264Z,99.90
2018-07-17T03:24:32.455Z,99.90
2018-07-17T03:27:01.742Z,99.90
2018-07-17T03:29:30.912Z,99.90
2018-07-17T03:32:00.227Z,99.90
2018-07-17T03:34:29.484Z,99.90
2018-07-17T03:36:58.659Z,99.90
2018-07-17T03:39:27.842Z,99.90
2018-07-17T03:41:57.028Z,99.90
2018-07-17T03:46:55.147Z,99.90
2018-07-17T03:49:24.338Z,99.90
2018-07-17T03:51:53.531Z,99.90
2018-07-17T03:54:22.747Z,99.90
2018-07-17T03:56:51.920Z,99.90
2018-07-17T03:59:21.102Z,99.90
2018-07-17T04:04:19.249Z,99.90
2018-07-17T04:06:48.380Z,99.90
2018-07-17T04:09:17.545Z,99.90
2018-07-17T04:11:46.696Z,99.90
2018-07-17T04:14:15.864Z,99.90
2018-07-17T04:16:50.200Z,99.90
2018-07-17T04:19:19.677Z,99.90
2018-07-17T04:21:49.110Z,99.90
2018-07-17T04:24:18.393Z,99.90
2018-07-17T04:26:47.545Z,99.90
2018-07-17T04:29:16.684Z,99.90
2018-07-17T04:31:45.869Z,99.90
2018-07-17T04:34:14.995Z,99.90
2018-07-17T04:36:44.153Z,99.90
2018-07-17T04:39:14.098Z,99.90
2018-07-17T04:41:43.265Z,99.90
2018-07-17T04:44:12.420Z,99.90
2018-07-17T04:46:41.569Z,99.90
2018-07-17T04:49:10.720Z,99.90
2018-07-17T04:51:39.877Z,99.90
2018-07-17T04:56:37.970Z,99.90
2018-07-17T04:59:07.127Z,99.90
2018-07-17T05:01:36.384Z,99.90
2018-07-17T05:04:05.436Z,99.90
2018-07-17T05:06:34.596Z,99.90
2018-07-17T05:09:04.597Z,99.90
2018-07-17T05:11:33.748Z,99.90
2018-07-17T05:14:02.905Z,99.90
2018-07-17T05:16:32.098Z,99.90
2018-07-17T05:19:01.221Z,99.90
2018-07-17T05:21:30.366Z,99.90
2018-07-17T05:23:59.523Z,99.90
2018-07-17T05:26:28.690Z,99.90
2018-07-17T05:28:57.875Z,99.90
2018-07-17T05:31:27.013Z,99.90
2018-07-17T05:33:56.160Z,99.90
2018-07-17T05:36:31.681Z,99.90
2018-07-17T05:39:00.832Z,99.90
2018-07-17T05:41:29.996Z,99.90
2018-07-17T05:43:59.152Z,99.90
2018-07-17T05:46:28.333Z,99.90
2018-07-17T05:48:57.576Z,99.90
2018-07-17T05:51:26.720Z,99.90
2018-07-17T05:53:56.065Z,99.90
2018-07-17T05:56:25.223Z,99.90
2018-07-17T05:58:54.408Z,99.90
2018-07-17T06:01:23.553Z,99.90
2018-07-17T06:03:52.692Z,99.90
2018-07-17T06:06:21.892Z,99.90
2018-07-17T06:08:51.071Z,99.90
2018-07-17T06:11:20.236Z,99.90
2018-07-17T06:13:49.425Z,99.90
2018-07-17T06:18:47.560Z,99.90
2018-07-17T06:21:16.754Z,99.90
2018-07-17T06:23:46.009Z,99.90
2018-07-17T06:28:44.150Z,99.90
2018-07-17T06:31:13.336Z,99.90
2018-07-17T06:33:42.567Z,99.90
2018-07-17T06:36:11.755Z,99.90
2018-07-17T06:38:40.935Z,99.90
2018-07-17T06:41:10.120Z,99.90
2018-07-17T06:43:39.325Z,99.90
2018-07-17T06:48:37.435Z,99.90
2018-07-17T06:51:06.611Z,99.90
2018-07-17T06:53:35.772Z,99.90
2018-07-17T06:58:34.112Z,99.90
2018-07-17T07:01:03.313Z,99.90
2018-07-17T07:03:32.486Z,99.90
2018-07-17T07:06:01.666Z,99.90
2018-07-17T07:08:30.807Z,99.90
2018-07-17T07:10:59.956Z,99.90
2018-07-17T07:13:29.119Z,99.90
2018-07-17T07:15:58.269Z,99.90
2018-07-17T07:18:27.421Z,99.90
2018-07-17T07:20:56.559Z,99.90
2018-07-17T07:23:25.827Z,99.90
2018-07-17T07:25:54.877Z,99.90
2018-07-17T07:28:24.036Z,99.90
2018-07-17T07:30:53.277Z,99.90
2018-07-17T07:33:22.456Z,99.90
2018-07-17T07:35:51.618Z,99.90
2018-07-17T07:38:20.775Z,99.90
2018-07-17T07:40:49.929Z,99.90
2018-07-17T07:43:19.088Z,99.90
2018-07-17T07:45:48.240Z,99.90
2018-07-17T07:48:17.412Z,99.90
2018-07-17T07:50:46.616Z,99.90
2018-07-17T07:53:15.774Z,99.90
2018-07-17T07:55:44.993Z,99.90
2018-07-17T07:58:14.120Z,99.90
2018-07-17T08:00:43.289Z,99.90
2018-07-17T08:03:12.448Z,99.90
2018-07-17T08:05:41.609Z,99.90
2018-07-17T08:08:10.769Z,99.90
2018-07-17T08:10:39.920Z,99.90
2018-07-17T08:13:09.120Z,99.90
2018-07-17T08:15:38.273Z,99.90
2018-07-17T08:18:07.472Z,99.90
2018-07-17T08:20:36.645Z,99.90
2018-07-17T08:23:05.815Z,99.90
2018-07-17T08:25:35.017Z,99.90
2018-07-17T08:28:04.200Z,99.90
2018-07-17T08:30:33.377Z,99.90
2018-07-17T08:33:02.577Z,99.90
2018-07-17T08:35:31.765Z,99.90
2018-07-17T08:38:00.937Z,99.80
2018-07-17T08:42:59.067Z,99.70
2018-07-17T08:45:28.248Z,99.10
2018-07-17T08:47:57.416Z,99.00
2018-07-17T08:50:26.592Z,99.20
2018-07-17T08:52:55.782Z,98.60
2018-07-17T08:55:24.969Z,98.20
2018-07-17T08:57:54.287Z,99.90
2018-07-17T09:00:23.486Z,99.90
2018-07-17T09:02:52.667Z,99.90
2018-07-17T09:05:21.832Z,15.20
2018-07-17T09:07:50.993Z,1.00
2018-07-17T09:10:20.144Z,1.00
2018-07-17T09:12:49.385Z,1.00
2018-07-17T09:15:18.584Z,1.00
2018-07-17T09:17:47.736Z,1.00
2018-07-17T09:20:16.876Z,1.00
2018-07-17T09:22:46.028Z,1.00
2018-07-17T09:25:15.173Z,1.00
2018-07-17T09:27:44.329Z,1.00
2018-07-17T09:30:13.478Z,1.00
2018-07-17T09:32:42.634Z,1.00
2018-07-17T09:35:11.786Z,1.00
2018-07-17T09:37:40.943Z,99.90
2018-07-17T09:40:10.108Z,1.00
2018-07-17T09:42:39.251Z,99.90
2018-07-17T09:45:08.408Z,99.90
2018-07-17T09:47:37.561Z,99.90
2018-07-17T09:50:06.730Z,99.90
2018-07-17T09:52:35.864Z,99.90
2018-07-17T09:55:05.017Z,99.90
2018-07-17T09:57:34.151Z,99.90
2018-07-17T10:00:03.317Z,99.90
2018-07-17T10:02:32.464Z,99.90
2018-07-17T10:05:01.644Z,99.90
2018-07-17T10:07:30.798Z,99.90
2018-07-17T10:09:59.945Z,99.90
2018-07-17T10:12:29.087Z,99.90
2018-07-17T10:14:58.234Z,99.90
2018-07-17T10:17:27.381Z,99.90
2018-07-17T10:19:56.604Z,99.90
2018-07-17T10:22:25.714Z,99.90
2018-07-17T10:24:54.876Z,99.90
2018-07-17T10:27:24.030Z,99.90
2018-07-17T10:29:53.167Z,99.90
2018-07-17T10:32:22.328Z,99.90
2018-07-17T10:34:51.490Z,99.90
2018-07-17T10:37:20.642Z,99.90
2018-07-17T10:39:49.803Z,99.90
2018-07-17T10:42:19.068Z,99.90
2018-07-17T10:44:48.212Z,99.90
2018-07-17T10:47:17.385Z,99.90
2018-07-17T10:49:46.533Z,99.90
2018-07-17T10:52:15.820Z,99.90
2018-07-17T10:54:44.959Z,99.90
2018-07-17T10:59:43.045Z,99.90
2018-07-17T11:02:12.252Z,99.90
2018-07-17T11:04:41.406Z,99.90
2018-07-17T11:07:10.592Z,99.90
2018-07-17T11:09:39.789Z,99.90
2018-07-17T11:12:08.986Z,99.90
2018-07-17T11:14:38.165Z,99.90
2018-07-17T11:17:07.593Z,99.90
2018-07-17T11:19:36.772Z,99.90
2018-07-17T11:22:05.969Z,99.90
2018-07-17T11:24:35.149Z,99.90
2018-07-17T11:27:04.324Z,99.90
2018-07-17T11:29:33.514Z,99.90
2018-07-17T11:32:02.747Z,99.90
2018-07-17T11:34:31.852Z,99.90
2018-07-17T11:37:01.064Z,82.50
2018-07-17T11:39:30.232Z,73.90
2018-07-17T11:41:59.418Z,44.40
2018-07-17T11:44:29.356Z,31.30
2018-07-17T11:46:58.557Z,30.00
2018-07-17T11:49:27.740Z,30.40
2018-07-17T11:51:56.934Z,20.00
2018-07-17T11:54:26.114Z,20.60
2018-07-17T11:56:55.281Z,21.70
2018-07-17T11:59:24.622Z,19.90
2018-07-17T12:01:53.636Z,10.60
2018-07-17T12:04:22.816Z,1.00
2018-07-17T12:06:51.998Z,1.00
2018-07-17T12:09:21.169Z,1.00
2018-07-17T12:11:50.375Z,1.00
2018-07-17T12:14:19.554Z,1.00
2018-07-17T12:16:48.730Z,1.00
2018-07-17T12:19:17.905Z,1.00
2018-07-17T12:21:53.431Z,1.00
2018-07-17T12:24:22.647Z,1.00
2018-07-17T12:26:51.820Z,1.00
2018-07-17T12:31:49.940Z,1.00
2018-07-17T12:34:19.116Z,1.00
2018-07-17T12:36:48.302Z,1.00
2018-07-17T12:39:17.494Z,1.00
2018-07-17T12:41:46.669Z,1.00
2018-07-17T12:44:15.874Z,1.00
2018-07-17T12:46:45.020Z,1.00
2018-07-17T12:49:14.194Z,1.00
2018-07-17T12:51:43.364Z,1.00
2018-07-17T12:54:12.539Z,1.00
2018-07-17T12:56:41.714Z,1.00
2018-07-17T12:59:10.895Z,1.00
2018-07-17T13:04:09.016Z,1.00
2018-07-17T13:06:38.168Z,1.00
2018-07-17T13:09:09.313Z,1.00
2018-07-17T13:11:38.476Z,1.00
2018-07-17T13:14:07.652Z,1.00
2018-07-17T13:16:36.801Z,1.00
2018-07-17T13:21:34.909Z,1.00
2018-07-17T13:24:04.066Z,1.00
2018-07-17T13:26:33.204Z,1.00
2018-07-17T13:29:02.356Z,1.00
2018-07-17T13:31:31.501Z,1.00
2018-07-17T13:34:00.666Z,1.00
2018-07-17T13:38:58.741Z,1.00
2018-07-17T13:41:27.884Z,1.00
2018-07-17T13:43:57.024Z,1.00
2018-07-17T13:46:26.163Z,1.00
2018-07-17T13:48:55.329Z,1.00
2018-07-17T13:51:24.457Z,1.00
2018-07-17T13:53:53.622Z,1.00
2018-07-17T13:56:22.769Z,1.00
2018-07-17T13:58:51.908Z,1.00
2018-07-17T14:01:21.044Z,1.00
2018-07-17T14:03:50.197Z,1.00
2018-07-17T14:06:19.323Z,1.00
2018-07-17T14:08:48.511Z,1.00
2018-07-17T14:13:46.631Z,1.00
2018-07-17T14:16:15.801Z,1.00
2018-07-17T14:18:44.969Z,1.00
2018-07-17T14:21:14.152Z,1.00
2018-07-17T14:23:43.378Z,1.00
2018-07-17T14:26:12.516Z,1.00
2018-07-17T14:28:41.703Z,1.00
2018-07-17T14:31:10.873Z,1.00
2018-07-17T14:33:40.049Z,1.00
2018-07-17T14:36:09.220Z,1.00
2018-07-17T14:38:38.384Z,1.00
2018-07-17T14:41:07.655Z,1.00
2018-07-17T14:43:36.827Z,1.00
2018-07-17T14:46:06.175Z,1.00
2018-07-17T14:48:38.019Z,1.00
2018-07-17T14:56:08.090Z,1.00
2018-07-17T14:58:37.327Z,1.00
2018-07-17T15:01:06.888Z,1.00
2018-07-17T15:03:36.065Z,1.00
2018-07-17T15:06:05.240Z,1.00
2018-07-17T15:08:34.408Z,1.00
2018-07-17T15:11:03.677Z,1.00
2018-07-17T15:13:32.758Z,1.00
2018-07-17T15:16:01.920Z,1.00
2018-07-17T15:21:00.040Z,1.00
2018-07-17T15:23:29.212Z,1.00
2018-07-17T15:25:58.388Z,1.00
2018-07-17T15:28:27.563Z,1.00
2018-07-17T15:30:56.737Z,1.00
2018-07-17T15:33:26.732Z,1.00
2018-07-17T15:35:55.926Z,1.00
2018-07-17T15:38:25.163Z,1.00
2018-07-17T15:40:54.277Z,1.00
2018-07-17T15:43:23.446Z,1.00
2018-07-17T15:48:21.600Z,1.00
2018-07-17T15:50:50.787Z,1.00
2018-07-17T15:53:19.962Z,1.00
2018-07-17T15:55:49.136Z,1.00
2018-07-17T15:58:18.312Z,1.00
2018-07-17T16:00:47.865Z,1.00
2018-07-17T16:03:17.047Z,1.00
2018-07-17T16:05:46.229Z,1.00
2018-07-17T16:08:15.401Z,1.00
2018-07-17T16:10:44.640Z,1.00
2018-07-17T16:13:13.855Z,1.00
2018-07-17T16:15:43.142Z,1.00
2018-07-17T16:18:12.313Z,1.00
2018-07-17T16:23:10.448Z,1.00
2018-07-17T16:25:39.640Z,1.00
2018-07-17T16:28:08.820Z,1.00
2018-07-17T16:30:37.995Z,1.00
2018-07-17T16:33:07.164Z,1.00
2018-07-17T16:35:36.357Z,1.00
2018-07-17T16:38:05.531Z,1.00
2018-07-17T16:40:34.711Z,1.00
2018-07-17T16:43:03.963Z,1.00
2018-07-17T16:45:33.149Z,1.00
2018-07-17T16:48:02.369Z,1.00
2018-07-17T16:50:31.519Z,1.00
2018-07-17T16:53:00.677Z,1.00
2018-07-17T16:55:29.855Z,1.00
2018-07-17T16:57:59.012Z,1.00
2018-07-17T17:00:28.199Z,1.00
2018-07-17T17:02:57.362Z,1.00
2018-07-17T17:05:26.545Z,1.00
2018-07-17T17:10:24.636Z,1.00
2018-07-17T17:12:54.109Z,1.00
2018-07-17T17:15:24.070Z,1.00
2018-07-17T17:17:53.245Z,1.00
2018-07-17T17:20:22.376Z,1.00
2018-07-17T17:22:51.528Z,1.00
2018-07-17T17:25:20.680Z,1.00
2018-07-17T17:27:49.844Z,1.00
2018-07-17T17:30:19.000Z,1.00
2018-07-17T17:32:48.192Z,1.00
2018-07-17T17:35:17.291Z,1.00
2018-07-17T17:37:46.435Z,1.00
2018-07-17T17:40:15.612Z,1.00
2018-07-17T17:42:44.761Z,1.00
2018-07-17T17:45:13.912Z,1.00
2018-07-17T17:50:12.008Z,1.00
2018-07-17T17:55:10.083Z,1.00
2018-07-17T17:57:40.064Z,1.00
2018-07-17T18:00:09.229Z,1.00
2018-07-17T18:02:38.411Z,1.00
2018-07-17T18:07:36.578Z,1.00
2018-07-17T18:10:06.206Z,1.00
2018-07-17T18:15:05.307Z,1.00
2018-07-17T18:20:03.802Z,1.00
2018-07-17T18:22:32.936Z,1.00
2018-07-17T18:25:02.101Z,1.00
2018-07-17T18:30:00.229Z,1.00
2018-07-17T18:32:29.377Z,1.00
2018-07-17T18:34:58.553Z,1.00
2018-07-17T18:37:27.711Z,1.00
2018-07-17T18:39:56.872Z,1.00
2018-07-17T18:44:54.969Z,1.00
2018-07-17T18:47:24.131Z,1.00
2018-07-17T18:50:12.003Z,1.00
2018-07-17T18:52:22.473Z,1.00
2018-07-17T18:54:51.605Z,1.00
2018-07-17T18:57:20.778Z,1.00
2018-07-17T19:02:18.844Z,1.00
2018-07-17T19:04:48.026Z,1.00
2018-07-17T19:07:17.217Z,1.00
2018-07-17T19:09:46.405Z,1.00
2018-07-17T19:12:15.650Z,1.00
2018-07-17T19:14:44.792Z,1.00
2018-07-17T19:17:13.981Z,1.00
2018-07-17T19:19:43.220Z,1.10
2018-07-17T19:22:12.420Z,2.30
2018-07-17T19:24:41.634Z,3.70
2018-07-17T19:27:10.818Z,5.20
2018-07-17T19:32:08.975Z,9.00
2018-07-17T19:34:38.157Z,10.10
2018-07-17T19:37:07.618Z,11.50
2018-07-17T19:39:36.803Z,13.50
2018-07-17T19:42:06.041Z,15.50
2018-07-17T19:44:35.546Z,17.30
2018-07-17T19:47:04.925Z,18.30
2018-07-17T19:49:34.091Z,19.60
2018-07-17T19:52:03.283Z,21.50
2018-07-17T19:54:32.710Z,22.20
2018-07-17T19:57:01.900Z,20.90
2018-07-17T19:59:31.080Z,25.40
2018-07-17T20:02:00.272Z,28.10
2018-07-17T20:04:29.464Z,31.00
2018-07-17T20:06:58.652Z,37.10
2018-07-17T20:09:27.831Z,39.50
2018-07-17T20:11:57.015Z,43.10
2018-07-17T20:14:26.196Z,47.20
2018-07-17T20:16:55.376Z,50.90
2018-07-17T20:19:24.572Z,55.30
2018-07-17T20:24:22.680Z,66.40
2018-07-17T20:26:51.868Z,78.30
2018-07-17T20:29:21.345Z,80.70
2018-07-17T20:31:50.504Z,89.00
2018-07-17T20:34:19.668Z,92.10
2018-07-17T20:36:48.834Z,96.50
2018-07-17T20:39:18.004Z,98.00
2018-07-17T20:41:47.180Z,98.10
2018-07-17T20:44:16.357Z,98.20
2018-07-17T20:46:45.555Z,98.30
2018-07-17T20:51:43.670Z,99.90
2018-07-17T20:54:12.840Z,99.90
2018-07-17T20:56:42.013Z,99.90
2018-07-17T20:59:11.264Z,99.90
2018-07-17T21:01:40.445Z,99.90
2018-07-17T21:04:09.642Z,99.90
2018-07-17T21:06:38.789Z,99.90
2018-07-17T21:09:10.588Z,99.90
2018-07-17T21:11:39.727Z,99.90
2018-07-17T21:14:08.861Z,99.90
2018-07-17T21:16:38.025Z,99.90
2018-07-17T21:19:07.275Z,99.90
2018-07-17T21:21:36.428Z,99.90
2018-07-17T21:24:05.596Z,99.90
2018-07-17T21:26:34.745Z,99.90
2018-07-17T21:29:04.136Z,99.90
2018-07-17T21:31:33.267Z,99.90
2018-07-17T21:34:02.430Z,99.90
2018-07-17T21:36:31.608Z,99.90
2018-07-17T21:39:00.792Z,99.90
2018-07-17T21:41:29.923Z,99.90
2018-07-17T21:46:28.009Z,99.90
2018-07-17T21:48:57.160Z,99.90
2018-07-17T21:51:26.318Z,99.90
2018-07-17T21:56:24.404Z,99.90
2018-07-17T22:01:22.456Z,99.90
2018-07-17T22:03:51.608Z,99.90
2018-07-17T22:06:20.731Z,1.00
2018-07-17T22:08:49.907Z,1.00
2018-07-17T22:11:19.177Z,1.00
2018-07-17T22:16:17.439Z,22.60
2018-07-17T22:18:46.773Z,1.00
2018-07-17T22:21:15.957Z,15.40
2018-07-17T22:26:14.081Z,1.00
2018-07-17T22:28:43.254Z,1.00
2018-07-17T22:31:12.436Z,1.00
2018-07-17T22:33:41.608Z,1.00
2018-07-17T22:36:10.779Z,15.00
2018-07-17T22:38:39.961Z,89.70
2018-07-17T22:41:09.148Z,99.90
2018-07-17T22:43:38.325Z,99.90
2018-07-17T22:46:07.488Z,99.90
2018-07-17T22:48:36.667Z,99.90
2018-07-17T22:51:06.142Z,99.90
2018-07-17T22:53:35.311Z,99.90
2018-07-17T22:56:04.485Z,99.90
2018-07-17T22:58:33.668Z,99.90
2018-07-17T23:01:02.875Z,99.90
2018-07-17T23:03:32.060Z,1.00
2018-07-17T23:06:01.224Z,1.00
2018-07-17T23:08:30.374Z,1.00
2018-07-17T23:10:59.521Z,1.00
2018-07-17T23:13:28.672Z,1.00
2018-07-17T23:15:57.793Z,1.00
2018-07-17T23:18:26.931Z,1.00
2018-07-17T23:20:56.076Z,1.00
2018-07-17T23:23:25.245Z,95.20
2018-07-17T23:25:54.390Z,99.90
2018-07-17T23:28:23.548Z,99.90
2018-07-17T23:30:52.688Z,99.90
2018-07-17T23:33:21.874Z,99.90
2018-07-17T23:35:51.036Z,99.90
2018-07-17T23:38:20.167Z,1.00
2018-07-17T23:43:18.245Z,99.90
2018-07-17T23:48:16.329Z,99.90
2018-07-17T23:53:14.388Z,99.90
2018-07-17T23:55:43.540Z,99.90
2018-07-17T23:58:12.677Z,99.90
